ADDS METAR Data INFO
IDs: Format: Raw Decoded Include TAF

Data at: 1314 UTC 25 Feb 2018

KARR 251252Z 24015KT 8SM OVC026 01/M02 A2980 RMK AO2 PK WND 26030/1201 SLP097 T00111022
KARR 251152Z AUTO 25018G27KT 8SM OVC027 01/M03 A2977 RMK AO2 PK WND 25036/1103 SLP085 60001 70029 T00111028 10078 20006 51034
KARR 251052Z AUTO 25023G32KT 9SM OVC022 01/M02 A2974 RMK AO2 PK WND 26041/1033 SLP076 T00061022
KARR 250952Z AUTO 25025G30KT 9SM OVC019 01/M02 A2971 RMK AO2 PK WND 26040/0855 SLP065 T00111022
KARR 250852Z AUTO 26028G38KT 10SM OVC021 01/M02 A2966 RMK AO2 PK WND 25039/0821 SLP050 60001 T00111022 51035
KARR 250752Z AUTO 25024G34KT 10SM SCT013 OVC019 02/M01 A2963 RMK AO2 PK WND 26039/0730 SLP038 T00221006
KARR 250748Z AUTO 25028G35KT 10SM SCT011 OVC019 02/00 A2962 RMK AO2 PK WND 26039/0730
KARR 250652Z AUTO 26026G39KT 10SM BKN012 OVC075 04/02 A2956 RMK AO2 PK WND 25039/0647 RAE17 SLP014 P0001 T00390022
KARR 250644Z AUTO 26029G38KT 10SM BKN012 OVC070 04/03 A2956 RMK AO2 PK WND 26038/0644 RAE17 PRESRR P0001 T00440028
KARR 250637Z AUTO 26028G36KT 10SM SCT012 BKN060 OVC090 05/03 A2954 RMK AO2 PK WND 26036/0635 RAE17 P0001 T00500033
KARR 250629Z AUTO 26024G31KT 10SM SCT010 BKN014 OVC070 06/04 A2953 RMK AO2 PK WND 26036/0611 RAE17 P0001 T00560044
KARR 250614Z AUTO 26026G36KT 9SM -RA SCT010 OVC048 06/04 A2952 RMK AO2 PK WND 26036/0611 P0001 T00610044
KARR 250552Z AUTO 26022G29KT 4SM -RA BR BKN006 BKN010 OVC030 08/07 A2950 RMK AO2 PK WND 26029/0544 WSHFT 0454 SLP994 P0022 60027 T00780072 10094 20050 400941006 55015
KARR 250535Z AUTO 24019G26KT 3SM -RA BR BKN005 BKN020 OVC025 09/08 A2949 RMK AO2 PK WND 25026/0534 WSHFT 0454 P0021 T00890083
KARR 250520Z AUTO 23012KT 3SM -RA BR BKN004 OVC022 09/09 A2948 RMK AO2 PK WND 25026/0506 WSHFT 0454 PRESRR P0017 T00940089
KARR 250508Z AUTO 23011G26KT 1 3/4SM +RA BR OVC004 09/09 A2946 RMK AO2 PK WND 25026/0506 WSHFT 0454 PRESRR P0011 T00940089
KARR 250452Z AUTO 15013G21KT 4SM RA BR OVC003 09/09 A2943 RMK AO2 RAB06 PRESFR SLP967 P0003 T00890089
KARR 250411Z AUTO 14018G24KT 5SM -RA BR OVC004 09/08 A2947 RMK AO2 RAB06 P0000 T00890083
KARR 250352Z AUTO 14017KT 5SM BR OVC005 08/08 A2949 RMK AO2 RAE12 SLP989 P0001 T00830078
KARR 250252Z 12017G23KT 6SM -RA BR OVC005 08/08 A2955 RMK AO2 PK WND 13028/0157 SLP009 P0001 60001 T00830078 58051
KARR 250152Z 13016G23KT 5SM -RA BR OVC006 08/07 A2959 RMK AO2 PK WND 13028/0124 RAB50 SLP026 P0000 T00780072
KARR 250052Z 11013KT 6SM BR OVC005 07/06 A2966 RMK AO2 PK WND 12027/0014 SLP047 T00670061
KARR 250006Z 11019KT 4SM BR OVC005 06/05 A2969 RMK AO2 T00560050
KARR 242352Z 10016KT 2SM BR OVC005 05/04 A2970 RMK AO2 PRESFR SLP063 60001 T00500044 10056 20044 58047
KARR 242319Z 11017KT 1 3/4SM BR OVC007 05/04 A2976 RMK AO2 CIG 006V010 T00500039
KARR 242252Z 10013KT 2SM BR OVC008 04/04 A2978 RMK AO2 RAE2153 SLP092 P0000 T00440039
KARR 242250Z 10015KT 2SM BR OVC008 04/04 A2978 RMK AO2 RAE2153 P0000
KARR 242232Z 09012KT 3SM BR BKN008 OVC015 04/04 A2980 RMK AO2 RAE2153 P0000 T00440039
KARR 242220Z 09013KT 3SM BR BKN010 OVC015 04/04 A2981 RMK AO2 RAE2153 P0000 T00440039
KARR 242213Z 09013KT 3SM BR SCT010 OVC015 04/04 A2981 RMK AO2 RAE2153 P0000 T00440039
KARR 242208Z 09013KT 2 1/2SM BR OVC013 04/03 A2982 RMK AO2 RAE2153 PRESFR P0000 T00440033
KARR 242152Z 08011KT 2 1/2SM -RA BR OVC016 04/03 A2984 RMK AO2 RAB14 PRESFR SLP112 P0001 T00440033
KARR 242144Z 08011KT 2SM -RA BR OVC018 04/03 A2986 RMK AO2 RAB14 P0001 T00440033
KARR 242121Z 08011KT 1 3/4SM -RA BR BKN016 BKN021 OVC026 05/03 A2987 RMK AO2 RAB14 P0000 T00500028
KARR 242052Z 08013KT 6SM HZ BKN017 OVC034 06/02 A2988 RMK AO2 SLP125 60000 T00560017 58042
KARR 241952Z 09011KT 6SM HZ OVC017 05/02 A2992 RMK AO2 SLP137 T00500017
KARR 241852Z 08011KT 6SM HZ OVC017 05/01 A2998 RMK AO2 RAB1758E11 SLP156 P0000 T00500011
KARR 241752Z 07009KT 6SM HZ OVC017 04/01 A3001 RMK AO2 SLP169 T00440006 10044 20006 58040
KARR 241652Z 07014KT 7SM OVC019 04/M01 A3007 RMK AO2 SLP188 T00391006
KARR 241628Z 07013KT 7SM BKN021 OVC070 03/M01 A3009 RMK AO2 T00331006
KARR 241552Z 08009KT 7SM OVC075 03/M01 A3011 RMK AO2 SLP203 T00281011
KARR 241452Z 08016G21KT 6SM HZ SCT015 OVC090 02/M02 A3013 RMK AO2 SLP210 T00171017 56012
KARR 241352Z 08011KT 6SM BR OVC015 01/M01 A3014 RMK AO2 SLP215 T00111011
KARR 241341Z 08009KT 6SM BR OVC015 01/M01 A3014 RMK AO2 T00111011
KARR 241252Z 07012KT 7SM OVC012 01/M01 A3014 RMK AO2 SLP214 T00111011
KARR 241152Z AUTO 05009KT 7SM OVC012 01/M01 A3017 RMK AO2 SLP222 T00061011 10006 21006 58014
KARR 241052Z AUTO 05009KT 7SM BKN012 OVC095 00/M02 A3018 RMK AO2 SLP227 T00001017
KARR 240952Z AUTO 05008KT 6SM BR CLR 00/M02 A3020 RMK AO2 SLP233 T00001017
KARR 240852Z AUTO 04006KT 6SM BR CLR 00/M02 A3021 RMK AO2 SLP236 T00001017 56017
KARR 240752Z AUTO 01008KT 6SM BR CLR 00/M02 A3021 RMK AO2 SLP238 T00001017
KARR 240652Z AUTO 34009KT 5SM BR CLR 00/M02 A3023 RMK AO2 SLP243 T00001017
KARR 240552Z AUTO 32005KT 4SM BR CLR 00/M01 A3026 RMK AO2 SLP254 T00001011 10033 21006 400561006 58003
KARR 240452Z AUTO 27004KT 5SM BR CLR 00/M01 A3027 RMK AO2 SLP258 T00001011
KARR 240352Z AUTO 24004KT 5SM BR CLR 00/M01 A3028 RMK AO2 SLP261 T00001006
KARR 240303Z AUTO 28004KT 6SM BR SCT018 00/M01 A3027 RMK AO2 T00001011
KARR 240252Z 29005KT 6SM BR BKN018 01/M01 A3027 RMK AO2 SLP256 T00061006 53008
KARR 240218Z 27006KT 6SM BR BKN018 01/M01 A3026 RMK AO2 T00061006
KARR 240152Z 26005KT 7SM CLR 01/M01 A3025 RMK AO2 SLP250 T00111006